sensor_id;sensor_type;location;lat;lon;timestamp;P1;durP1;ratioP1;P2;durP2;ratioP2
73023;SDS011;61199;47.526;8.538;2023-05-10T00:01:54;1.50;;;0.87;;
73023;SDS011;61199;47.526;8.538;2023-05-10T00:04:20;1.10;;;0.70;;
73023;SDS011;61199;47.526;8.538;2023-05-10T00:06:47;3.33;;;1.00;;
73023;SDS011;61199;47.526;8.538;2023-05-10T00:09:13;5.60;;;1.00;;
73023;SDS011;61199;47.526;8.538;2023-05-10T00:11:40;1.27;;;0.80;;
73023;SDS011;61199;47.526;8.538;2023-05-10T00:14:06;1.57;;;0.80;;
73023;SDS011;61199;47.526;8.538;2023-05-10T00:16:33;1.23;;;0.70;;
73023;SDS011;61199;47.526;8.538;2023-05-10T00:18:59;3.03;;;0.77;;
73023;SDS011;61199;47.526;8.538;2023-05-10T00:21:26;1.00;;;0.73;;
73023;SDS011;61199;47.526;8.538;2023-05-10T00:23:54;3.10;;;0.70;;
73023;SDS011;61199;47.526;8.538;2023-05-10T00:26:20;1.87;;;0.73;;
73023;SDS011;61199;47.526;8.538;2023-05-10T00:28:47;2.07;;;0.70;;
73023;SDS011;61199;47.526;8.538;2023-05-10T00:31:13;1.30;;;0.70;;
73023;SDS011;61199;47.526;8.538;2023-05-10T00:33:40;1.33;;;0.73;;
73023;SDS011;61199;47.526;8.538;2023-05-10T00:36:07;1.40;;;0.80;;
73023;SDS011;61199;47.526;8.538;2023-05-10T00:38:33;5.43;;;1.30;;
73023;SDS011;61199;47.526;8.538;2023-05-10T00:41:00;1.27;;;0.70;;
73023;SDS011;61199;47.526;8.538;2023-05-10T00:43:26;3.33;;;0.83;;
73023;SDS011;61199;47.526;8.538;2023-05-10T00:45:52;3.30;;;0.90;;
73023;SDS011;61199;47.526;8.538;2023-05-10T00:48:19;0.90;;;0.70;;
73023;SDS011;61199;47.526;8.538;2023-05-10T00:50:46;3.20;;;1.10;;
73023;SDS011;61199;47.526;8.538;2023-05-10T00:53:13;6.13;;;1.00;;
73023;SDS011;61199;47.526;8.538;2023-05-10T00:55:41;2.13;;;0.90;;
73023;SDS011;61199;47.526;8.538;2023-05-10T00:58:07;3.40;;;1.20;;
73023;SDS011;61199;47.526;8.538;2023-05-10T01:00:34;2.50;;;0.70;;
73023;SDS011;61199;47.526;8.538;2023-05-10T01:03:02;2.10;;;0.90;;
73023;SDS011;61199;47.526;8.538;2023-05-10T01:05:29;2.50;;;0.97;;
73023;SDS011;61199;47.526;8.538;2023-05-10T01:07:55;3.10;;;1.27;;
73023;SDS011;61199;47.526;8.538;2023-05-10T01:10:22;1.17;;;0.73;;
73023;SDS011;61199;47.526;8.538;2023-05-10T01:12:48;2.50;;;1.30;;
73023;SDS011;61199;47.526;8.538;2023-05-10T01:15:15;1.87;;;0.93;;
73023;SDS011;61199;47.526;8.538;2023-05-10T01:17:43;2.00;;;0.83;;
73023;SDS011;61199;47.526;8.538;2023-05-10T01:20:11;1.00;;;0.70;;
73023;SDS011;61199;47.526;8.538;2023-05-10T01:22:50;1.33;;;0.90;;
73023;SDS011;61199;47.526;8.538;2023-05-10T01:31:06;3.30;;;0.90;;
73023;SDS011;61199;47.526;8.538;2023-05-10T01:36:26;1.30;;;1.00;;
73023;SDS011;61199;47.526;8.538;2023-05-10T01:39:44;1.70;;;0.90;;
73023;SDS011;61199;47.526;8.538;2023-05-10T01:41:56;2.07;;;1.07;;
73023;SDS011;61199;47.526;8.538;2023-05-10T01:44:33;2.17;;;1.00;;
73023;SDS011;61199;47.526;8.538;2023-05-10T01:47:10;3.10;;;1.13;;
73023;SDS011;61199;47.526;8.538;2023-05-10T01:49:44;1.20;;;0.80;;
73023;SDS011;61199;47.526;8.538;2023-05-10T01:52:14;2.90;;;1.67;;
73023;SDS011;61199;47.526;8.538;2023-05-10T01:54:49;1.20;;;0.90;;
73023;SDS011;61199;47.526;8.538;2023-05-10T01:57:19;4.10;;;0.83;;
73023;SDS011;61199;47.526;8.538;2023-05-10T01:59:49;1.97;;;1.10;;
73023;SDS011;61199;47.526;8.538;2023-05-10T02:02:17;4.73;;;1.00;;
73023;SDS011;61199;47.526;8.538;2023-05-10T02:04:47;6.33;;;1.23;;
73023;SDS011;61199;47.526;8.538;2023-05-10T02:07:13;3.30;;;1.10;;
73023;SDS011;61199;47.526;8.538;2023-05-10T02:09:40;7.50;;;0.80;;
73023;SDS011;61199;47.526;8.538;2023-05-10T02:12:10;4.40;;;0.93;;
73023;SDS011;61199;47.526;8.538;2023-05-10T02:14:39;2.33;;;0.90;;
73023;SDS011;61199;47.526;8.538;2023-05-10T02:17:09;2.50;;;1.27;;
73023;SDS011;61199;47.526;8.538;2023-05-10T02:19:36;3.00;;;1.00;;
73023;SDS011;61199;47.526;8.538;2023-05-10T02:22:04;3.40;;;1.00;;
73023;SDS011;61199;47.526;8.538;2023-05-10T02:24:32;3.60;;;1.17;;
73023;SDS011;61199;47.526;8.538;2023-05-10T02:27:00;4.27;;;1.10;;
73023;SDS011;61199;47.526;8.538;2023-05-10T02:29:29;2.20;;;1.23;;
73023;SDS011;61199;47.526;8.538;2023-05-10T02:31:58;4.60;;;1.10;;
73023;SDS011;61199;47.526;8.538;2023-05-10T02:34:26;3.53;;;1.30;;
73023;SDS011;61199;47.526;8.538;2023-05-10T02:36:53;1.93;;;1.50;;
73023;SDS011;61199;47.526;8.538;2023-05-10T02:39:21;3.17;;;1.33;;
73023;SDS011;61199;47.526;8.538;2023-05-10T02:41:49;4.13;;;1.60;;
73023;SDS011;61199;47.526;8.538;2023-05-10T02:44:18;2.07;;;1.57;;
73023;SDS011;61199;47.526;8.538;2023-05-10T02:46:46;4.47;;;2.10;;
73023;SDS011;61199;47.526;8.538;2023-05-10T02:49:13;2.60;;;1.97;;
73023;SDS011;61199;47.526;8.538;2023-05-10T02:51:51;3.50;;;1.70;;
73023;SDS011;61199;47.526;8.538;2023-05-10T02:54:24;3.50;;;2.00;;
73023;SDS011;61199;47.526;8.538;2023-05-10T02:56:54;6.63;;;2.40;;
73023;SDS011;61199;47.526;8.538;2023-05-10T02:59:23;4.13;;;1.87;;
73023;SDS011;61199;47.526;8.538;2023-05-10T03:01:49;4.27;;;2.03;;
73023;SDS011;61199;47.526;8.538;2023-05-10T03:04:16;4.10;;;2.00;;
73023;SDS011;61199;47.526;8.538;2023-05-10T03:06:42;6.73;;;2.47;;
73023;SDS011;61199;47.526;8.538;2023-05-10T03:09:09;3.00;;;2.40;;
73023;SDS011;61199;47.526;8.538;2023-05-10T03:12:00;5.40;;;3.17;;
73023;SDS011;61199;47.526;8.538;2023-05-10T03:20:16;5.00;;;2.60;;
73023;SDS011;61199;47.526;8.538;2023-05-10T03:22:50;3.63;;;1.90;;
73023;SDS011;61199;47.526;8.538;2023-05-10T03:25:21;2.83;;;1.10;;
73023;SDS011;61199;47.526;8.538;2023-05-10T03:27:49;3.43;;;1.37;;
73023;SDS011;61199;47.526;8.538;2023-05-10T03:30:16;5.57;;;1.30;;
73023;SDS011;61199;47.526;8.538;2023-05-10T03:32:43;2.80;;;1.40;;
73023;SDS011;61199;47.526;8.538;2023-05-10T03:35:10;2.57;;;1.17;;
73023;SDS011;61199;47.526;8.538;2023-05-10T03:37:38;4.00;;;1.40;;
73023;SDS011;61199;47.526;8.538;2023-05-10T03:40:06;2.80;;;1.40;;
73023;SDS011;61199;47.526;8.538;2023-05-10T03:42:33;2.93;;;1.30;;
73023;SDS011;61199;47.526;8.538;2023-05-10T03:45:00;4.73;;;1.07;;
73023;SDS011;61199;47.526;8.538;2023-05-10T03:47:26;5.13;;;1.53;;
73023;SDS011;61199;47.526;8.538;2023-05-10T03:49:53;2.07;;;1.33;;
73023;SDS011;61199;47.526;8.538;2023-05-10T03:52:19;6.63;;;1.57;;
73023;SDS011;61199;47.526;8.538;2023-05-10T03:54:45;2.70;;;1.53;;
73023;SDS011;61199;47.526;8.538;2023-05-10T03:57:12;11.60;;;1.50;;
73023;SDS011;61199;47.526;8.538;2023-05-10T03:59:38;4.20;;;1.60;;
73023;SDS011;61199;47.526;8.538;2023-05-10T04:02:05;2.40;;;1.50;;
73023;SDS011;61199;47.526;8.538;2023-05-10T04:04:31;3.63;;;1.37;;
73023;SDS011;61199;47.526;8.538;2023-05-10T04:06:58;1.27;;;1.10;;
73023;SDS011;61199;47.526;8.538;2023-05-10T04:09:24;3.77;;;1.30;;
73023;SDS011;61199;47.526;8.538;2023-05-10T04:11:51;4.60;;;1.50;;
73023;SDS011;61199;47.526;8.538;2023-05-10T04:14:17;5.33;;;1.83;;
73023;SDS011;61199;47.526;8.538;2023-05-10T04:16:44;3.17;;;1.20;;
73023;SDS011;61199;47.526;8.538;2023-05-10T04:19:11;4.60;;;1.33;;
73023;SDS011;61199;47.526;8.538;2023-05-10T04:21:37;3.57;;;1.20;;
73023;SDS011;61199;47.526;8.538;2023-05-10T04:24:04;6.93;;;1.80;;
73023;SDS011;61199;47.526;8.538;2023-05-10T04:26:30;1.80;;;1.40;;
73023;SDS011;61199;47.526;8.538;2023-05-10T04:28:57;5.20;;;1.20;;
73023;SDS011;61199;47.526;8.538;2023-05-10T04:31:23;4.73;;;1.00;;
73023;SDS011;61199;47.526;8.538;2023-05-10T04:33:50;3.10;;;1.57;;
73023;SDS011;61199;47.526;8.538;2023-05-10T04:36:16;4.07;;;1.00;;
73023;SDS011;61199;47.526;8.538;2023-05-10T04:38:42;4.17;;;1.30;;
73023;SDS011;61199;47.526;8.538;2023-05-10T04:41:10;4.83;;;1.27;;
73023;SDS011;61199;47.526;8.538;2023-05-10T04:43:37;4.03;;;1.57;;
73023;SDS011;61199;47.526;8.538;2023-05-10T04:46:04;3.07;;;1.27;;
73023;SDS011;61199;47.526;8.538;2023-05-10T04:48:32;1.33;;;1.10;;
73023;SDS011;61199;47.526;8.538;2023-05-10T04:50:58;1.67;;;1.03;;
73023;SDS011;61199;47.526;8.538;2023-05-10T04:53:24;1.77;;;1.30;;
73023;SDS011;61199;47.526;8.538;2023-05-10T04:55:51;2.57;;;1.07;;
73023;SDS011;61199;47.526;8.538;2023-05-10T04:58:17;3.30;;;1.30;;
73023;SDS011;61199;47.526;8.538;2023-05-10T05:00:44;5.10;;;1.20;;
73023;SDS011;61199;47.526;8.538;2023-05-10T05:03:10;4.67;;;1.60;;
73023;SDS011;61199;47.526;8.538;2023-05-10T05:05:37;2.50;;;1.60;;
73023;SDS011;61199;47.526;8.538;2023-05-10T05:08:03;4.37;;;1.70;;
73023;SDS011;61199;47.526;8.538;2023-05-10T05:10:30;2.70;;;1.33;;
73023;SDS011;61199;47.526;8.538;2023-05-10T05:12:56;1.50;;;1.30;;
73023;SDS011;61199;47.526;8.538;2023-05-10T05:15:23;2.97;;;1.50;;
73023;SDS011;61199;47.526;8.538;2023-05-10T05:17:49;1.80;;;1.20;;
73023;SDS011;61199;47.526;8.538;2023-05-10T05:20:15;3.00;;;1.20;;
73023;SDS011;61199;47.526;8.538;2023-05-10T05:22:42;3.20;;;1.30;;
73023;SDS011;61199;47.526;8.538;2023-05-10T05:25:09;7.70;;;1.10;;
73023;SDS011;61199;47.526;8.538;2023-05-10T05:27:35;2.90;;;1.20;;
73023;SDS011;61199;47.526;8.538;2023-05-10T05:30:02;3.30;;;1.40;;
73023;SDS011;61199;47.526;8.538;2023-05-10T05:32:28;1.83;;;1.17;;
73023;SDS011;61199;47.526;8.538;2023-05-10T05:34:55;3.37;;;1.30;;
73023;SDS011;61199;47.526;8.538;2023-05-10T05:37:21;4.73;;;1.27;;
73023;SDS011;61199;47.526;8.538;2023-05-10T05:39:48;1.40;;;1.10;;
73023;SDS011;61199;47.526;8.538;2023-05-10T05:42:15;2.20;;;1.00;;
73023;SDS011;61199;47.526;8.538;2023-05-10T05:44:42;1.70;;;1.27;;
73023;SDS011;61199;47.526;8.538;2023-05-10T05:47:09;10.70;;;1.73;;
73023;SDS011;61199;47.526;8.538;2023-05-10T05:49:35;6.77;;;1.60;;
73023;SDS011;61199;47.526;8.538;2023-05-10T05:52:02;4.03;;;1.53;;
73023;SDS011;61199;47.526;8.538;2023-05-10T05:54:30;1.77;;;1.30;;
73023;SDS011;61199;47.526;8.538;2023-05-10T05:56:57;5.17;;;1.40;;
73023;SDS011;61199;47.526;8.538;2023-05-10T05:59:26;6.47;;;1.50;;
73023;SDS011;61199;47.526;8.538;2023-05-10T06:01:53;5.50;;;1.40;;
73023;SDS011;61199;47.526;8.538;2023-05-10T06:04:19;2.77;;;1.20;;
73023;SDS011;61199;47.526;8.538;2023-05-10T06:06:46;3.83;;;1.43;;
73023;SDS011;61199;47.526;8.538;2023-05-10T06:09:12;1.50;;;1.00;;
73023;SDS011;61199;47.526;8.538;2023-05-10T06:11:38;2.90;;;1.50;;
73023;SDS011;61199;47.526;8.538;2023-05-10T06:14:05;2.70;;;1.00;;
73023;SDS011;61199;47.526;8.538;2023-05-10T06:16:33;1.50;;;0.93;;
73023;SDS011;61199;47.526;8.538;2023-05-10T06:19:01;2.17;;;1.10;;
73023;SDS011;61199;47.526;8.538;2023-05-10T06:21:28;3.10;;;1.00;;
73023;SDS011;61199;47.526;8.538;2023-05-10T06:23:55;1.47;;;1.10;;
73023;SDS011;61199;47.526;8.538;2023-05-10T06:26:21;1.27;;;0.90;;
73023;SDS011;61199;47.526;8.538;2023-05-10T06:28:47;4.10;;;1.20;;
73023;SDS011;61199;47.526;8.538;2023-05-10T06:31:14;1.47;;;0.93;;
73023;SDS011;61199;47.526;8.538;2023-05-10T06:33:40;1.23;;;1.07;;
73023;SDS011;61199;47.526;8.538;2023-05-10T06:36:06;1.73;;;0.90;;
73023;SDS011;61199;47.526;8.538;2023-05-10T06:38:33;1.70;;;1.10;;
73023;SDS011;61199;47.526;8.538;2023-05-10T06:40:59;1.50;;;1.17;;
73023;SDS011;61199;47.526;8.538;2023-05-10T06:43:26;3.73;;;1.10;;
73023;SDS011;61199;47.526;8.538;2023-05-10T06:45:54;3.30;;;1.67;;
73023;SDS011;61199;47.526;8.538;2023-05-10T06:48:21;4.70;;;1.10;;
73023;SDS011;61199;47.526;8.538;2023-05-10T06:50:47;1.97;;;1.03;;
73023;SDS011;61199;47.526;8.538;2023-05-10T06:53:13;2.60;;;1.07;;
73023;SDS011;61199;47.526;8.538;2023-05-10T06:55:40;4.37;;;1.00;;
73023;SDS011;61199;47.526;8.538;2023-05-10T06:58:06;5.17;;;0.90;;
73023;SDS011;61199;47.526;8.538;2023-05-10T07:00:32;1.87;;;1.17;;
73023;SDS011;61199;47.526;8.538;2023-05-10T07:02:59;4.10;;;0.90;;
73023;SDS011;61199;47.526;8.538;2023-05-10T07:05:25;2.40;;;0.93;;
73023;SDS011;61199;47.526;8.538;2023-05-10T07:07:54;2.43;;;1.00;;
73023;SDS011;61199;47.526;8.538;2023-05-10T07:10:20;1.53;;;0.80;;
73023;SDS011;61199;47.526;8.538;2023-05-10T07:12:46;1.40;;;0.80;;
73023;SDS011;61199;47.526;8.538;2023-05-10T07:15:13;1.10;;;0.73;;
73023;SDS011;61199;47.526;8.538;2023-05-10T07:17:40;2.00;;;1.10;;
73023;SDS011;61199;47.526;8.538;2023-05-10T07:20:10;1.70;;;1.00;;
73023;SDS011;61199;47.526;8.538;2023-05-10T07:22:37;3.80;;;1.13;;
73023;SDS011;61199;47.526;8.538;2023-05-10T07:25:03;1.77;;;1.00;;
73023;SDS011;61199;47.526;8.538;2023-05-10T07:27:30;3.37;;;1.40;;
73023;SDS011;61199;47.526;8.538;2023-05-10T07:29:56;2.73;;;1.20;;
73023;SDS011;61199;47.526;8.538;2023-05-10T07:32:23;3.73;;;1.43;;
73023;SDS011;61199;47.526;8.538;2023-05-10T07:34:49;1.73;;;1.13;;
73023;SDS011;61199;47.526;8.538;2023-05-10T07:37:16;2.80;;;1.57;;
73023;SDS011;61199;47.526;8.538;2023-05-10T07:39:42;7.47;;;1.40;;
73023;SDS011;61199;47.526;8.538;2023-05-10T07:42:09;2.13;;;1.10;;
73023;SDS011;61199;47.526;8.538;2023-05-10T07:44:35;7.00;;;1.17;;
73023;SDS011;61199;47.526;8.538;2023-05-10T07:47:01;2.77;;;1.40;;
73023;SDS011;61199;47.526;8.538;2023-05-10T07:49:28;3.50;;;1.73;;
73023;SDS011;61199;47.526;8.538;2023-05-10T07:51:54;3.70;;;1.60;;
73023;SDS011;61199;47.526;8.538;2023-05-10T07:54:21;6.50;;;1.80;;
73023;SDS011;61199;47.526;8.538;2023-05-10T07:56:47;6.27;;;1.90;;
73023;SDS011;61199;47.526;8.538;2023-05-10T07:59:14;6.20;;;1.70;;
73023;SDS011;61199;47.526;8.538;2023-05-10T08:01:43;5.53;;;1.60;;
73023;SDS011;61199;47.526;8.538;2023-05-10T08:04:09;6.60;;;1.40;;
73023;SDS011;61199;47.526;8.538;2023-05-10T08:06:36;3.33;;;1.50;;
73023;SDS011;61199;47.526;8.538;2023-05-10T08:09:03;1.93;;;1.40;;
73023;SDS011;61199;47.526;8.538;2023-05-10T08:11:29;6.60;;;1.63;;
73023;SDS011;61199;47.526;8.538;2023-05-10T08:13:56;6.53;;;1.33;;
73023;SDS011;61199;47.526;8.538;2023-05-10T08:16:22;11.63;;;1.90;;
73023;SDS011;61199;47.526;8.538;2023-05-10T08:18:49;7.13;;;1.93;;
73023;SDS011;61199;47.526;8.538;2023-05-10T08:21:16;6.13;;;1.67;;
73023;SDS011;61199;47.526;8.538;2023-05-10T08:23:43;2.83;;;1.37;;
73023;SDS011;61199;47.526;8.538;2023-05-10T08:26:10;5.73;;;1.50;;
73023;SDS011;61199;47.526;8.538;2023-05-10T08:28:37;3.83;;;1.80;;
73023;SDS011;61199;47.526;8.538;2023-05-10T08:31:04;6.27;;;1.50;;
73023;SDS011;61199;47.526;8.538;2023-05-10T08:33:31;3.70;;;1.67;;
73023;SDS011;61199;47.526;8.538;2023-05-10T08:35:57;10.07;;;1.60;;
73023;SDS011;61199;47.526;8.538;2023-05-10T08:38:24;3.40;;;1.50;;
73023;SDS011;61199;47.526;8.538;2023-05-10T08:40:51;2.30;;;1.40;;
73023;SDS011;61199;47.526;8.538;2023-05-10T08:43:22;6.80;;;2.00;;
73023;SDS011;61199;47.526;8.538;2023-05-10T08:45:53;6.77;;;1.70;;
73023;SDS011;61199;47.526;8.538;2023-05-10T08:48:22;6.93;;;1.93;;
73023;SDS011;61199;47.526;8.538;2023-05-10T08:50:51;4.40;;;1.50;;
73023;SDS011;61199;47.526;8.538;2023-05-10T08:53:19;3.33;;;1.90;;
73023;SDS011;61199;47.526;8.538;2023-05-10T08:55:47;7.53;;;1.80;;
73023;SDS011;61199;47.526;8.538;2023-05-10T08:58:13;7.63;;;1.83;;
73023;SDS011;61199;47.526;8.538;2023-05-10T09:00:40;3.13;;;1.47;;
73023;SDS011;61199;47.526;8.538;2023-05-10T09:03:06;5.43;;;1.30;;
73023;SDS011;61199;47.526;8.538;2023-05-10T09:05:33;2.40;;;1.70;;
73023;SDS011;61199;47.526;8.538;2023-05-10T09:07:59;3.73;;;1.80;;
73023;SDS011;61199;47.526;8.538;2023-05-10T09:10:29;7.20;;;2.00;;
73023;SDS011;61199;47.526;8.538;2023-05-10T09:12:56;2.80;;;1.50;;
73023;SDS011;61199;47.526;8.538;2023-05-10T09:15:24;4.13;;;1.70;;
73023;SDS011;61199;47.526;8.538;2023-05-10T09:17:51;5.67;;;2.00;;
73023;SDS011;61199;47.526;8.538;2023-05-10T09:20:18;14.40;;;2.10;;
73023;SDS011;61199;47.526;8.538;2023-05-10T09:22:44;2.30;;;1.50;;
73023;SDS011;61199;47.526;8.538;2023-05-10T09:25:12;6.57;;;1.87;;
73023;SDS011;61199;47.526;8.538;2023-05-10T09:27:40;6.23;;;1.80;;
73023;SDS011;61199;47.526;8.538;2023-05-10T09:30:11;3.60;;;1.60;;
73023;SDS011;61199;47.526;8.538;2023-05-10T09:32:43;9.73;;;1.87;;
73023;SDS011;61199;47.526;8.538;2023-05-10T09:35:12;4.10;;;1.50;;
73023;SDS011;61199;47.526;8.538;2023-05-10T09:37:44;6.60;;;2.53;;
73023;SDS011;61199;47.526;8.538;2023-05-10T09:40:13;10.77;;;1.80;;
73023;SDS011;61199;47.526;8.538;2023-05-10T09:42:42;9.83;;;1.97;;
73023;SDS011;61199;47.526;8.538;2023-05-10T09:45:16;3.10;;;1.40;;
73023;SDS011;61199;47.526;8.538;2023-05-10T09:47:43;10.90;;;2.00;;
73023;SDS011;61199;47.526;8.538;2023-05-10T09:50:10;2.63;;;1.50;;
73023;SDS011;61199;47.526;8.538;2023-05-10T09:52:46;7.37;;;2.00;;
73023;SDS011;61199;47.526;8.538;2023-05-10T09:55:13;5.53;;;1.73;;
73023;SDS011;61199;47.526;8.538;2023-05-10T09:57:41;6.57;;;1.80;;
73023;SDS011;61199;47.526;8.538;2023-05-10T10:00:08;3.40;;;1.60;;
73023;SDS011;61199;47.526;8.538;2023-05-10T10:02:36;4.23;;;1.50;;
73023;SDS011;61199;47.526;8.538;2023-05-10T10:05:02;6.40;;;1.70;;
73023;SDS011;61199;47.526;8.538;2023-05-10T10:07:30;5.97;;;1.60;;
73023;SDS011;61199;47.526;8.538;2023-05-10T10:09:56;4.30;;;1.57;;
73023;SDS011;61199;47.526;8.538;2023-05-10T10:12:24;13.73;;;1.60;;
73023;SDS011;61199;47.526;8.538;2023-05-10T10:14:51;3.30;;;1.33;;
73023;SDS011;61199;47.526;8.538;2023-05-10T10:17:19;3.43;;;1.30;;
73023;SDS011;61199;47.526;8.538;2023-05-10T10:19:46;5.27;;;1.40;;
73023;SDS011;61199;47.526;8.538;2023-05-10T10:22:14;2.90;;;1.30;;
73023;SDS011;61199;47.526;8.538;2023-05-10T10:24:41;5.80;;;1.50;;
73023;SDS011;61199;47.526;8.538;2023-05-10T10:27:09;6.10;;;1.50;;
73023;SDS011;61199;47.526;8.538;2023-05-10T10:34:53;4.07;;;1.67;;
73023;SDS011;61199;47.526;8.538;2023-05-10T10:37:21;9.03;;;1.20;;
73023;SDS011;61199;47.526;8.538;2023-05-10T10:39:48;7.57;;;1.70;;
73023;SDS011;61199;47.526;8.538;2023-05-10T10:42:43;3.60;;;1.57;;
73023;SDS011;61199;47.526;8.538;2023-05-10T10:45:16;4.33;;;1.43;;
73023;SDS011;61199;47.526;8.538;2023-05-10T10:47:42;3.60;;;1.30;;
73023;SDS011;61199;47.526;8.538;2023-05-10T10:50:10;9.97;;;1.50;;
73023;SDS011;61199;47.526;8.538;2023-05-10T10:52:45;4.00;;;1.47;;
73023;SDS011;61199;47.526;8.538;2023-05-10T11:02:55;6.60;;;1.70;;
73023;SDS011;61199;47.526;8.538;2023-05-10T11:13:27;5.10;;;1.67;;
73023;SDS011;61199;47.526;8.538;2023-05-10T11:15:57;2.57;;;1.50;;
73023;SDS011;61199;47.526;8.538;2023-05-10T11:20:56;7.80;;;1.60;;
73023;SDS011;61199;47.526;8.538;2023-05-10T11:23:32;7.63;;;1.70;;
73023;SDS011;61199;47.526;8.538;2023-05-10T11:26:13;6.30;;;1.40;;
73023;SDS011;61199;47.526;8.538;2023-05-10T11:28:43;4.43;;;1.40;;
73023;SDS011;61199;47.526;8.538;2023-05-10T11:31:10;3.47;;;1.60;;
73023;SDS011;61199;47.526;8.538;2023-05-10T11:33:46;7.70;;;1.20;;
73023;SDS011;61199;47.526;8.538;2023-05-10T11:36:25;5.57;;;1.57;;
73023;SDS011;61199;47.526;8.538;2023-05-10T11:38:53;5.80;;;1.40;;
73023;SDS011;61199;47.526;8.538;2023-05-10T11:41:22;7.53;;;1.47;;
73023;SDS011;61199;47.526;8.538;2023-05-10T11:43:50;3.80;;;1.20;;
73023;SDS011;61199;47.526;8.538;2023-05-10T11:46:18;11.13;;;1.27;;
73023;SDS011;61199;47.526;8.538;2023-05-10T11:48:46;7.03;;;1.40;;
73023;SDS011;61199;47.526;8.538;2023-05-10T11:51:19;7.80;;;1.50;;
73023;SDS011;61199;47.526;8.538;2023-05-10T11:53:47;5.53;;;1.27;;
73023;SDS011;61199;47.526;8.538;2023-05-10T11:56:13;7.63;;;1.50;;
73023;SDS011;61199;47.526;8.538;2023-05-10T11:58:40;3.20;;;1.20;;
73023;SDS011;61199;47.526;8.538;2023-05-10T12:01:07;4.60;;;1.40;;
73023;SDS011;61199;47.526;8.538;2023-05-10T12:03:35;3.30;;;1.50;;
73023;SDS011;61199;47.526;8.538;2023-05-10T12:06:02;10.30;;;1.40;;
73023;SDS011;61199;47.526;8.538;2023-05-10T12:08:29;3.83;;;1.30;;
73023;SDS011;61199;47.526;8.538;2023-05-10T12:11:03;7.03;;;1.73;;
73023;SDS011;61199;47.526;8.538;2023-05-10T12:13:38;6.67;;;1.37;;
73023;SDS011;61199;47.526;8.538;2023-05-10T12:16:15;7.20;;;1.30;;
73023;SDS011;61199;47.526;8.538;2023-05-10T12:18:52;4.50;;;1.37;;
73023;SDS011;61199;47.526;8.538;2023-05-10T12:21:20;5.10;;;1.47;;
73023;SDS011;61199;47.526;8.538;2023-05-10T12:23:49;2.10;;;1.10;;
73023;SDS011;61199;47.526;8.538;2023-05-10T12:26:17;3.07;;;1.30;;
73023;SDS011;61199;47.526;8.538;2023-05-10T12:28:44;2.97;;;1.07;;
73023;SDS011;61199;47.526;8.538;2023-05-10T12:31:11;7.93;;;1.27;;
73023;SDS011;61199;47.526;8.538;2023-05-10T12:33:41;3.10;;;1.17;;
73023;SDS011;61199;47.526;8.538;2023-05-10T12:36:14;3.30;;;1.30;;
73023;SDS011;61199;47.526;8.538;2023-05-10T12:38:41;1.83;;;1.10;;
73023;SDS011;61199;47.526;8.538;2023-05-10T12:41:13;4.67;;;1.60;;
73023;SDS011;61199;47.526;8.538;2023-05-10T12:43:40;3.30;;;1.23;;
73023;SDS011;61199;47.526;8.538;2023-05-10T12:46:11;4.50;;;1.20;;
73023;SDS011;61199;47.526;8.538;2023-05-10T12:48:39;3.13;;;1.17;;
73023;SDS011;61199;47.526;8.538;2023-05-10T12:51:07;3.83;;;1.30;;
73023;SDS011;61199;47.526;8.538;2023-05-10T12:53:39;3.07;;;1.10;;
73023;SDS011;61199;47.526;8.538;2023-05-10T12:56:09;7.90;;;1.83;;
73023;SDS011;61199;47.526;8.538;2023-05-10T12:58:35;6.57;;;1.47;;
73023;SDS011;61199;47.526;8.538;2023-05-10T13:01:02;2.40;;;1.20;;
73023;SDS011;61199;47.526;8.538;2023-05-10T13:03:29;3.27;;;1.37;;
73023;SDS011;61199;47.526;8.538;2023-05-10T13:05:55;5.00;;;1.20;;
73023;SDS011;61199;47.526;8.538;2023-05-10T13:08:22;5.00;;;1.47;;
73023;SDS011;61199;47.526;8.538;2023-05-10T13:10:48;4.53;;;1.53;;
73023;SDS011;61199;47.526;8.538;2023-05-10T13:13:15;3.93;;;1.20;;
73023;SDS011;61199;47.526;8.538;2023-05-10T13:15:41;10.97;;;1.63;;
73023;SDS011;61199;47.526;8.538;2023-05-10T13:18:08;7.03;;;1.50;;
73023;SDS011;61199;47.526;8.538;2023-05-10T13:20:34;8.13;;;1.70;;
73023;SDS011;61199;47.526;8.538;2023-05-10T13:23:01;8.00;;;1.30;;
73023;SDS011;61199;47.526;8.538;2023-05-10T13:25:28;3.83;;;1.23;;
73023;SDS011;61199;47.526;8.538;2023-05-10T13:27:55;3.27;;;1.10;;
73023;SDS011;61199;47.526;8.538;2023-05-10T13:30:21;7.57;;;1.60;;
73023;SDS011;61199;47.526;8.538;2023-05-10T13:32:47;5.00;;;1.33;;
73023;SDS011;61199;47.526;8.538;2023-05-10T13:35:14;6.10;;;1.57;;
73023;SDS011;61199;47.526;8.538;2023-05-10T13:37:40;3.10;;;1.17;;
73023;SDS011;61199;47.526;8.538;2023-05-10T13:40:07;3.93;;;1.13;;
73023;SDS011;61199;47.526;8.538;2023-05-10T13:42:34;6.57;;;1.60;;
73023;SDS011;61199;47.526;8.538;2023-05-10T13:45:01;9.33;;;1.50;;
73023;SDS011;61199;47.526;8.538;2023-05-10T13:47:27;1.67;;;1.20;;
73023;SDS011;61199;47.526;8.538;2023-05-10T13:49:54;6.87;;;1.53;;
73023;SDS011;61199;47.526;8.538;2023-05-10T13:52:21;8.80;;;2.00;;
73023;SDS011;61199;47.526;8.538;2023-05-10T13:54:47;4.70;;;1.20;;
73023;SDS011;61199;47.526;8.538;2023-05-10T13:57:14;7.33;;;1.60;;
73023;SDS011;61199;47.526;8.538;2023-05-10T13:59:42;7.23;;;1.43;;
73023;SDS011;61199;47.526;8.538;2023-05-10T14:02:09;3.93;;;1.40;;
73023;SDS011;61199;47.526;8.538;2023-05-10T14:04:35;2.77;;;1.37;;
73023;SDS011;61199;47.526;8.538;2023-05-10T14:07:01;8.00;;;1.43;;
73023;SDS011;61199;47.526;8.538;2023-05-10T14:09:28;2.63;;;1.10;;
73023;SDS011;61199;47.526;8.538;2023-05-10T14:11:54;5.20;;;1.10;;
73023;SDS011;61199;47.526;8.538;2023-05-10T14:14:21;5.33;;;1.43;;
73023;SDS011;61199;47.526;8.538;2023-05-10T14:16:48;4.83;;;1.10;;
73023;SDS011;61199;47.526;8.538;2023-05-10T14:19:14;3.23;;;1.40;;
73023;SDS011;61199;47.526;8.538;2023-05-10T14:21:41;4.93;;;1.60;;
73023;SDS011;61199;47.526;8.538;2023-05-10T14:24:07;5.70;;;1.30;;
73023;SDS011;61199;47.526;8.538;2023-05-10T14:26:33;2.30;;;1.30;;
73023;SDS011;61199;47.526;8.538;2023-05-10T14:29:00;3.93;;;1.23;;
73023;SDS011;61199;47.526;8.538;2023-05-10T14:31:27;7.83;;;1.30;;
73023;SDS011;61199;47.526;8.538;2023-05-10T14:33:53;2.00;;;0.97;;
73023;SDS011;61199;47.526;8.538;2023-05-10T14:36:20;4.53;;;1.23;;
73023;SDS011;61199;47.526;8.538;2023-05-10T14:38:46;2.90;;;1.40;;
73023;SDS011;61199;47.526;8.538;2023-05-10T14:41:12;4.47;;;1.30;;
73023;SDS011;61199;47.526;8.538;2023-05-10T14:43:41;2.40;;;1.37;;
73023;SDS011;61199;47.526;8.538;2023-05-10T14:46:07;5.40;;;1.63;;
73023;SDS011;61199;47.526;8.538;2023-05-10T14:48:34;3.03;;;1.30;;
73023;SDS011;61199;47.526;8.538;2023-05-10T14:51:01;4.87;;;1.50;;
73023;SDS011;61199;47.526;8.538;2023-05-10T14:53:28;4.60;;;2.40;;
73023;SDS011;61199;47.526;8.538;2023-05-10T14:55:54;7.57;;;1.40;;
73023;SDS011;61199;47.526;8.538;2023-05-10T14:58:21;3.00;;;1.40;;
73023;SDS011;61199;47.526;8.538;2023-05-10T15:00:47;6.50;;;2.07;;
73023;SDS011;61199;47.526;8.538;2023-05-10T15:03:14;6.30;;;1.60;;
73023;SDS011;61199;47.526;8.538;2023-05-10T15:05:41;4.07;;;1.80;;
73023;SDS011;61199;47.526;8.538;2023-05-10T15:08:07;3.00;;;1.10;;
73023;SDS011;61199;47.526;8.538;2023-05-10T15:10:35;6.80;;;1.20;;
73023;SDS011;61199;47.526;8.538;2023-05-10T15:13:03;3.00;;;1.00;;
73023;SDS011;61199;47.526;8.538;2023-05-10T15:15:30;3.30;;;1.10;;
73023;SDS011;61199;47.526;8.538;2023-05-10T15:17:56;3.57;;;1.20;;
73023;SDS011;61199;47.526;8.538;2023-05-10T15:20:23;5.10;;;1.10;;
73023;SDS011;61199;47.526;8.538;2023-05-10T15:22:49;4.30;;;1.13;;
73023;SDS011;61199;47.526;8.538;2023-05-10T15:25:16;2.80;;;1.10;;
73023;SDS011;61199;47.526;8.538;2023-05-10T15:27:43;1.20;;;0.83;;
73023;SDS011;61199;47.526;8.538;2023-05-10T15:30:10;1.90;;;0.73;;